createdAt,value
2019-04-05T00:02:23.954Z,11.00
2019-04-05T00:04:51.410Z,12.43
2019-04-05T00:07:18.910Z,10.57
2019-04-05T00:09:46.369Z,10.33
2019-04-05T00:12:13.873Z,11.93
2019-04-05T00:14:41.334Z,14.07
2019-04-05T00:17:08.844Z,11.00
2019-04-05T00:19:36.303Z,11.57
2019-04-05T00:22:03.799Z,14.07
2019-04-05T00:24:31.271Z,13.53
2019-04-05T00:26:58.765Z,12.67
2019-04-05T00:29:26.258Z,13.57
2019-04-05T00:31:53.764Z,11.47
2019-04-05T00:34:21.270Z,14.30
2019-04-05T00:36:48.774Z,13.23
2019-04-05T00:39:16.306Z,13.33
2019-04-05T00:41:43.774Z,12.93
2019-04-05T00:44:11.235Z,12.87
2019-04-05T00:46:38.738Z,12.90
2019-04-05T00:49:06.240Z,12.17
2019-04-05T00:51:33.703Z,13.57
2019-04-05T00:54:01.197Z,15.07
2019-04-05T00:56:28.713Z,15.70
2019-04-05T00:58:56.208Z,15.97
2019-04-05T01:01:23.717Z,15.93
2019-04-05T01:03:51.224Z,23.27
2019-04-05T01:06:18.728Z,21.83
2019-04-05T01:08:46.191Z,14.67
2019-04-05T01:11:13.696Z,18.63
2019-04-05T01:13:41.157Z,15.77
2019-04-05T01:16:08.666Z,16.57
2019-04-05T01:18:36.134Z,14.50
2019-04-05T01:21:03.628Z,16.27
2019-04-05T01:23:31.136Z,13.97
2019-04-05T01:25:58.608Z,14.80
2019-04-05T01:28:26.118Z,16.53
2019-04-05T01:30:53.632Z,18.30
2019-04-05T01:33:21.110Z,14.17
2019-04-05T01:35:48.621Z,14.40
2019-04-05T01:38:16.124Z,12.90
2019-04-05T01:40:43.589Z,12.53
2019-04-05T01:43:11.099Z,11.83
2019-04-05T01:45:38.563Z,13.10
2019-04-05T01:48:06.024Z,12.43
2019-04-05T01:50:33.538Z,12.70
2019-04-05T01:53:01.012Z,14.17
2019-04-05T01:55:28.516Z,16.10
2019-04-05T01:57:55.987Z,13.97
2019-04-05T02:00:23.497Z,14.77
2019-04-05T02:02:50.957Z,15.37
2019-04-05T02:05:18.466Z,13.60
2019-04-05T02:07:45.977Z,13.37
2019-04-05T02:10:13.491Z,15.10
2019-04-05T02:12:40.954Z,14.17
2019-04-05T02:15:08.427Z,16.00
2019-04-05T02:17:36.155Z,13.23
2019-04-05T02:20:03.401Z,17.20
2019-04-05T02:22:30.929Z,16.43
2019-04-05T02:24:58.434Z,13.70
2019-04-05T02:27:25.942Z,12.90
2019-04-05T02:29:53.423Z,13.53
2019-04-05T02:32:20.929Z,12.30
2019-04-05T02:34:48.384Z,13.57
2019-04-05T02:37:15.855Z,12.07
2019-04-05T02:39:43.372Z,13.97
2019-04-05T02:42:10.840Z,14.40
2019-04-05T02:44:38.372Z,13.30
2019-04-05T02:47:05.830Z,11.07
2019-04-05T02:49:33.278Z,11.33
2019-04-05T02:52:00.766Z,12.57
2019-04-05T02:54:28.237Z,12.40
2019-04-05T02:56:55.648Z,13.10
2019-04-05T02:59:23.123Z,11.67
2019-04-05T03:01:50.540Z,11.57
2019-04-05T03:04:17.987Z,13.27
2019-04-05T03:06:45.425Z,12.87
2019-04-05T03:09:12.854Z,13.80
2019-04-05T03:11:40.318Z,11.90
2019-04-05T03:14:07.730Z,13.97
2019-04-05T03:16:41.020Z,11.63
2019-04-05T03:19:02.612Z,14.50
2019-04-05T03:21:30.026Z,12.23
2019-04-05T03:23:57.478Z,14.40
2019-04-05T03:26:24.925Z,13.20
2019-04-05T03:28:52.381Z,12.83
2019-04-05T03:31:24.498Z,15.03
2019-04-05T03:33:47.236Z,12.23
2019-04-05T03:36:14.686Z,14.17
2019-04-05T03:38:42.091Z,13.70
2019-04-05T03:41:09.533Z,13.83
2019-04-05T03:43:36.951Z,13.70
2019-04-05T03:46:04.398Z,13.27
2019-04-05T03:48:31.825Z,14.80
2019-04-05T03:50:59.245Z,15.30
2019-04-05T03:53:26.680Z,16.40
2019-04-05T03:55:54.111Z,15.97
2019-04-05T03:58:21.551Z,14.27
2019-04-05T04:00:48.966Z,17.07
2019-04-05T04:03:16.422Z,17.43
2019-04-05T04:05:43.834Z,18.10
2019-04-05T04:08:11.316Z,18.67
2019-04-05T04:10:38.747Z,20.70
2019-04-05T04:13:06.203Z,18.30
2019-04-05T04:15:33.602Z,16.20
2019-04-05T04:18:01.045Z,23.40
2019-04-05T04:20:33.977Z,22.40
2019-04-05T04:23:01.417Z,22.47
2019-04-05T04:25:28.831Z,20.83
2019-04-05T04:27:56.271Z,24.37
2019-04-05T04:30:23.700Z,21.70
2019-04-05T04:32:51.154Z,24.07
2019-04-05T04:35:18.567Z,19.47
2019-04-05T04:37:45.993Z,19.90
2019-04-05T04:40:13.421Z,18.00
2019-04-05T04:42:40.846Z,16.67
2019-04-05T04:45:12.546Z,21.87
2019-04-05T04:47:35.720Z,15.37
2019-04-05T04:50:03.169Z,19.60
2019-04-05T04:52:31.506Z,17.97
2019-04-05T04:54:58.028Z,15.10
2019-04-05T04:57:25.464Z,16.97
2019-04-05T04:59:52.882Z,18.13
2019-04-05T05:02:20.298Z,19.33
2019-04-05T05:04:47.744Z,19.67
2019-04-05T05:07:15.257Z,18.23
2019-04-05T05:09:42.663Z,18.63
2019-04-05T05:12:10.077Z,18.43
2019-04-05T05:14:37.521Z,20.37
2019-04-05T05:17:04.937Z,15.60
2019-04-05T05:19:32.373Z,16.93
2019-04-05T05:21:59.829Z,19.93
2019-04-05T05:24:27.297Z,17.13
2019-04-05T05:26:54.712Z,17.27
2019-04-05T05:29:22.156Z,18.57
2019-04-05T05:31:49.568Z,29.43
2019-04-05T05:34:16.986Z,17.67
2019-04-05T05:36:44.435Z,15.90
2019-04-05T05:39:11.870Z,17.23
2019-04-05T05:41:39.301Z,16.10
2019-04-05T05:44:06.789Z,15.43
2019-04-05T05:46:34.213Z,16.07
2019-04-05T05:49:01.654Z,20.47
2019-04-05T05:51:29.073Z,22.97
2019-04-05T05:53:56.503Z,28.93
2019-04-05T05:56:23.948Z,26.07
2019-04-05T05:58:51.363Z,23.63
2019-04-05T06:01:18.818Z,29.23
2019-04-05T06:03:46.235Z,26.57
2019-04-05T06:06:13.666Z,34.63
2019-04-05T06:08:41.085Z,27.33
2019-04-05T06:11:08.495Z,28.37
2019-04-05T06:13:35.942Z,30.17
2019-04-05T06:16:03.391Z,28.40
2019-04-05T06:18:30.804Z,26.20
2019-04-05T06:20:58.240Z,25.47
2019-04-05T06:23:33.638Z,26.77
2019-04-05T06:25:53.187Z,27.53
2019-04-05T06:28:20.540Z,27.30
2019-04-05T06:30:48.805Z,27.07
2019-04-05T06:33:16.258Z,26.93
2019-04-05T06:35:43.667Z,24.53
2019-04-05T06:38:11.134Z,26.50
2019-04-05T06:40:41.137Z,19.60
2019-04-05T06:43:06.968Z,22.00
2019-04-05T06:45:33.448Z,19.70
2019-04-05T06:48:00.904Z,20.30
2019-04-05T06:50:28.385Z,25.37
2019-04-05T06:52:55.806Z,20.87
2019-04-05T06:55:23.263Z,20.10
2019-04-05T06:57:50.714Z,15.70
2019-04-05T07:00:18.137Z,19.63
2019-04-05T07:02:45.560Z,22.90
2019-04-05T07:05:13.038Z,20.07
2019-04-05T07:07:40.489Z,18.93
2019-04-05T07:10:07.903Z,18.07
2019-04-05T07:12:35.348Z,21.10
2019-04-05T07:15:02.758Z,16.50
2019-04-05T07:17:30.219Z,15.60
2019-04-05T07:19:57.636Z,17.07
2019-04-05T07:22:35.816Z,16.13
2019-04-05T07:24:52.495Z,17.23
2019-04-05T07:27:19.955Z,20.13
2019-04-05T07:29:47.421Z,15.40
2019-04-05T07:32:14.865Z,16.97
2019-04-05T07:34:42.309Z,15.90
2019-04-05T07:37:09.721Z,20.13
2019-04-05T07:39:37.181Z,18.67
2019-04-05T07:42:04.589Z,18.03
2019-04-05T07:44:32.037Z,17.33
2019-04-05T07:46:59.494Z,16.97
2019-04-05T07:49:26.959Z,15.33
2019-04-05T07:51:54.369Z,19.73
2019-04-05T07:54:21.783Z,16.40
2019-04-05T07:56:49.234Z,17.47
2019-04-05T07:59:16.649Z,15.20
2019-04-05T08:01:44.092Z,16.23
2019-04-05T08:04:11.497Z,15.80
2019-04-05T08:06:38.948Z,16.50
2019-04-05T08:09:06.356Z,22.60
2019-04-05T08:11:33.795Z,16.93
2019-04-05T08:14:01.219Z,13.87
2019-04-05T08:16:28.653Z,18.17
2019-04-05T08:18:58.187Z,16.03
2019-04-05T08:21:23.506Z,18.63
2019-04-05T08:23:51.020Z,17.27
2019-04-05T08:26:18.378Z,13.07
2019-04-05T08:28:45.787Z,11.43
2019-04-05T08:31:14.649Z,12.67
2019-04-05T08:33:40.695Z,9.63
2019-04-05T08:36:08.092Z,11.37
2019-04-05T08:38:35.559Z,10.73
2019-04-05T08:41:02.977Z,11.27
2019-04-05T08:43:30.387Z,11.80
2019-04-05T08:45:57.825Z,11.43
2019-04-05T08:48:25.245Z,9.33
2019-04-05T08:50:52.635Z,8.73
2019-04-05T08:53:20.090Z,10.33
2019-04-05T08:55:47.514Z,11.47
2019-04-05T08:58:14.946Z,11.37
2019-04-05T09:00:42.354Z,8.03
2019-04-05T09:03:11.939Z,8.07
2019-04-05T09:05:37.222Z,6.10
2019-04-05T09:08:04.653Z,7.37
2019-04-05T09:10:32.082Z,7.23
2019-04-05T09:12:59.525Z,9.07
2019-04-05T09:15:26.935Z,8.60
2019-04-05T09:17:54.369Z,7.87
2019-04-05T09:20:21.775Z,9.57
2019-04-05T09:22:49.201Z,9.60
2019-04-05T09:25:19.608Z,9.40
2019-04-05T09:27:44.038Z,9.80
2019-04-05T09:30:11.434Z,11.17
2019-04-05T09:32:38.860Z,9.80
2019-04-05T09:35:06.268Z,11.13
2019-04-05T09:37:33.694Z,10.53
2019-04-05T09:40:01.123Z,8.93
2019-04-05T09:42:28.558Z,9.67
2019-04-05T09:44:55.951Z,10.03
2019-04-05T09:47:23.377Z,9.20
2019-04-05T09:49:50.796Z,11.77
2019-04-05T09:52:18.214Z,9.30
2019-04-05T09:54:45.620Z,9.17
2019-04-05T09:57:13.074Z,9.73
2019-04-05T09:59:40.492Z,12.53
2019-04-05T10:02:07.928Z,10.70
2019-04-05T10:04:35.333Z,9.03
2019-04-05T10:07:02.772Z,9.50
2019-04-05T10:09:30.196Z,10.73
2019-04-05T10:11:57.604Z,11.07
2019-04-05T10:14:25.034Z,10.77
2019-04-05T10:16:52.441Z,11.33
2019-04-05T10:19:19.870Z,12.63
2019-04-05T10:21:47.275Z,11.60
2019-04-05T10:24:14.707Z,11.50
2019-04-05T10:26:42.136Z,11.73
2019-04-05T10:29:09.582Z,13.37
2019-04-05T10:31:36.993Z,13.90
2019-04-05T10:34:04.405Z,12.80
2019-04-05T10:36:31.846Z,13.87
2019-04-05T10:38:59.258Z,13.47
2019-04-05T10:41:26.668Z,9.37
2019-04-05T10:43:54.118Z,12.90
2019-04-05T10:46:21.521Z,12.10
2019-04-05T10:48:48.973Z,13.10
2019-04-05T10:51:16.383Z,14.30
2019-04-05T10:53:43.794Z,14.37
2019-04-05T10:56:11.241Z,15.37
2019-04-05T10:58:38.665Z,15.90
2019-04-05T11:01:06.078Z,15.10
2019-04-05T11:03:33.527Z,16.80
2019-04-05T11:06:00.947Z,18.27
2019-04-05T11:08:28.350Z,17.13
2019-04-05T11:10:55.775Z,16.90
2019-04-05T11:13:23.186Z,18.50
2019-04-05T11:15:50.638Z,22.33
2019-04-05T11:18:18.042Z,20.67
2019-04-05T11:20:48.991Z,20.87
2019-04-05T11:23:12.888Z,19.97
2019-04-05T11:25:40.320Z,25.10
2019-04-05T11:28:07.748Z,22.47
2019-04-05T11:30:44.050Z,21.50
2019-04-05T11:33:11.518Z,23.73
2019-04-05T11:35:38.923Z,23.13
2019-04-05T11:38:06.356Z,22.13
2019-04-05T11:40:33.769Z,22.43
2019-04-05T11:43:01.211Z,22.73
2019-04-05T11:45:28.631Z,21.87
2019-04-05T11:47:57.706Z,24.03
2019-04-05T11:50:33.772Z,22.10
2019-04-05T11:52:50.904Z,23.63
2019-04-05T11:55:18.912Z,23.47
2019-04-05T11:57:45.737Z,25.97
2019-04-05T12:00:13.163Z,20.17
2019-04-05T12:02:40.597Z,22.80
2019-04-05T12:05:08.029Z,21.30
2019-04-05T12:07:35.448Z,22.17
2019-04-05T12:10:02.881Z,21.20
2019-04-05T12:12:30.288Z,23.20
2019-04-05T12:14:57.713Z,26.50
2019-04-05T12:17:25.150Z,23.73
2019-04-05T12:19:52.598Z,24.73
2019-04-05T12:22:20.199Z,22.03
2019-04-05T12:24:47.746Z,27.67
2019-04-05T12:27:14.894Z,22.80
2019-04-05T12:29:42.294Z,28.07
2019-04-05T12:32:09.731Z,27.53
2019-04-05T12:34:37.173Z,28.70
2019-04-05T12:37:04.650Z,26.60
2019-04-05T12:39:32.030Z,23.63
2019-04-05T12:41:59.432Z,23.07
2019-04-05T12:44:26.865Z,29.03
2019-04-05T12:46:54.304Z,25.93
2019-04-05T12:49:21.738Z,28.67
2019-04-05T12:51:49.153Z,26.53
2019-04-05T12:54:16.592Z,22.40
2019-04-05T12:56:44.030Z,22.27
2019-04-05T12:59:11.434Z,21.97
2019-04-05T13:01:38.874Z,22.00
2019-04-05T13:04:06.283Z,20.73
2019-04-05T13:06:33.738Z,20.97
2019-04-05T13:09:01.140Z,22.67
2019-04-05T13:11:28.576Z,21.57
2019-04-05T13:13:56.371Z,25.43
2019-04-05T13:16:23.394Z,16.80
2019-04-05T13:18:50.835Z,20.87
2019-04-05T13:21:18.288Z,20.80
2019-04-05T13:23:45.713Z,20.37
2019-04-05T13:26:13.135Z,20.77
2019-04-05T13:28:40.576Z,21.07
2019-04-05T13:31:07.983Z,22.83
2019-04-05T13:33:35.418Z,20.47
2019-04-05T13:36:02.869Z,20.17
2019-04-05T13:38:30.528Z,20.60
2019-04-05T13:41:01.301Z,18.13
2019-04-05T13:43:25.148Z,18.90
2019-04-05T13:45:52.580Z,20.67
2019-04-05T13:48:19.996Z,18.70
2019-04-05T13:50:47.406Z,19.23
2019-04-05T13:53:14.859Z,20.73
2019-04-05T13:55:42.285Z,17.73
2019-04-05T13:58:11.258Z,17.47
2019-04-05T14:00:37.142Z,17.50
2019-04-05T14:03:04.579Z,17.20
2019-04-05T14:05:32.011Z,17.13
2019-04-05T14:08:09.751Z,16.47
2019-04-05T14:10:26.868Z,16.73
2019-04-05T14:12:54.289Z,16.97
2019-04-05T14:15:21.720Z,18.03
2019-04-05T14:17:49.452Z,16.77
2019-04-05T14:20:18.991Z,16.33
2019-04-05T14:22:44.016Z,17.97
2019-04-05T14:25:12.312Z,20.00
2019-04-05T14:27:39.772Z,20.80
2019-04-05T14:30:07.175Z,19.90
2019-04-05T14:32:35.044Z,19.97
2019-04-05T14:35:02.081Z,19.20
2019-04-05T14:37:29.500Z,19.70
2019-04-05T14:39:59.630Z,20.77
2019-04-05T14:42:29.471Z,19.17
2019-04-05T14:44:54.508Z,19.50
2019-04-05T14:47:21.962Z,20.77
2019-04-05T14:49:49.368Z,21.90
2019-04-05T14:52:16.960Z,21.23
2019-04-05T14:54:44.375Z,21.10
2019-04-05T14:57:11.849Z,22.63
2019-04-05T14:59:39.274Z,22.23
2019-04-05T15:02:06.708Z,20.50
2019-04-05T15:04:34.116Z,20.87
2019-04-05T15:07:01.553Z,20.77
2019-04-05T15:09:28.994Z,21.43
2019-04-05T15:11:58.356Z,26.00
2019-04-05T15:14:23.850Z,23.10
2019-04-05T15:16:51.261Z,24.47
2019-04-05T15:19:18.695Z,25.17
2019-04-05T15:21:46.123Z,24.67
2019-04-05T15:24:15.976Z,25.47
2019-04-05T15:26:41.006Z,23.57
2019-04-05T15:29:08.438Z,23.10
2019-04-05T15:31:35.869Z,24.20
2019-04-05T15:34:03.282Z,22.67
2019-04-05T15:36:31.669Z,23.80
2019-04-05T15:39:01.119Z,26.37
2019-04-05T15:41:25.574Z,24.50
2019-04-05T15:43:52.977Z,25.03
2019-04-05T15:46:20.449Z,23.73
2019-04-05T15:48:49.627Z,24.23
2019-04-05T15:51:15.270Z,29.20
2019-04-05T15:53:42.680Z,25.03
2019-04-05T15:56:10.171Z,24.30
2019-04-05T15:58:37.594Z,25.37
2019-04-05T16:01:06.954Z,23.97
2019-04-05T16:03:33.115Z,26.93
2019-04-05T16:05:59.917Z,23.67
2019-04-05T16:08:27.346Z,23.47
2019-04-05T16:10:54.761Z,23.60
2019-04-05T16:13:22.229Z,23.90
2019-04-05T16:15:49.629Z,24.13
2019-04-05T16:18:17.064Z,24.87
2019-04-05T16:20:44.512Z,22.37
2019-04-05T16:23:11.960Z,22.93
2019-04-05T16:25:39.466Z,22.97
2019-04-05T16:28:06.927Z,22.27
2019-04-05T16:30:34.844Z,22.47
2019-04-05T16:33:02.354Z,22.23
2019-04-05T16:35:29.881Z,23.27
2019-04-05T16:37:57.362Z,21.73
2019-04-05T16:40:24.761Z,21.70
2019-04-05T16:43:01.891Z,24.13
2019-04-05T16:45:19.648Z,24.17
2019-04-05T16:47:47.077Z,26.03
2019-04-05T16:50:14.579Z,26.40
2019-04-05T16:52:45.029Z,29.17
2019-04-05T16:55:09.534Z,25.57
2019-04-05T16:57:37.003Z,29.73
2019-04-05T17:00:07.292Z,29.73
2019-04-05T17:02:34.775Z,29.60
2019-04-05T17:05:02.243Z,28.67
2019-04-05T17:07:29.724Z,27.67
2019-04-05T17:09:57.155Z,29.83
2019-04-05T17:12:24.630Z,30.63
2019-04-05T17:14:52.028Z,30.33
2019-04-05T17:17:19.540Z,32.30
2019-04-05T17:19:47.035Z,32.65
2019-04-05T17:22:14.469Z,33.57
2019-04-05T17:24:41.902Z,31.80
2019-04-05T17:27:09.323Z,33.50
2019-04-05T17:29:36.900Z,35.67
2019-04-05T17:32:04.242Z,35.17
2019-04-05T17:34:31.716Z,29.40
2019-04-05T17:36:59.151Z,31.17
2019-04-05T17:39:26.581Z,28.30
2019-04-05T17:41:54.039Z,29.87
2019-04-05T17:44:21.560Z,31.57
2019-04-05T17:46:48.954Z,31.70
2019-04-05T17:49:16.370Z,29.57
2019-04-05T17:51:43.813Z,32.63
2019-04-05T17:54:11.259Z,32.77
2019-04-05T17:56:38.760Z,30.80
2019-04-05T17:59:06.189Z,34.63
2019-04-05T18:01:33.676Z,35.33
2019-04-05T18:04:01.103Z,37.27
2019-04-05T18:06:28.672Z,36.27
2019-04-05T18:08:56.197Z,38.47
2019-04-05T18:11:23.674Z,38.23
2019-04-05T18:13:51.141Z,36.73
2019-04-05T18:16:18.643Z,41.23
2019-04-05T18:18:46.141Z,37.13
2019-04-05T18:21:13.670Z,37.47
2019-04-05T18:23:41.113Z,34.40
2019-04-05T18:26:08.522Z,38.53
2019-04-05T18:28:36.038Z,35.87
2019-04-05T18:31:03.541Z,38.40
2019-04-05T18:33:30.960Z,35.30
2019-04-05T18:35:58.481Z,34.10
2019-04-05T18:38:25.926Z,36.93
2019-04-05T18:40:53.428Z,34.20
2019-04-05T18:43:20.845Z,35.13
2019-04-05T18:45:48.294Z,38.40
2019-04-05T18:48:15.722Z,38.93
2019-04-05T18:50:43.172Z,36.40
2019-04-05T18:53:10.661Z,33.77
2019-04-05T18:55:38.095Z,37.07
2019-04-05T18:58:05.552Z,36.50
2019-04-05T19:00:33.000Z,35.27
2019-04-05T19:03:00.459Z,31.87
2019-04-05T19:05:27.888Z,36.97
2019-04-05T19:07:55.308Z,32.93
2019-04-05T19:10:22.764Z,35.17
2019-04-05T19:12:50.300Z,36.33
2019-04-05T19:15:17.643Z,37.53
2019-04-05T19:17:45.131Z,39.23
2019-04-05T19:20:12.546Z,35.67
2019-04-05T19:22:39.996Z,32.90
2019-04-05T19:25:07.445Z,37.33
2019-04-05T19:27:34.926Z,36.17
2019-04-05T19:49:41.879Z,44.60
2019-04-05T19:52:09.358Z,41.17
2019-04-05T19:54:36.794Z,45.23
2019-04-05T19:57:04.232Z,44.87
2019-04-05T19:59:31.755Z,46.70
2019-04-05T20:01:59.166Z,51.30
2019-04-05T20:04:26.697Z,45.57
2019-04-05T20:06:58.587Z,44.37
2019-04-05T20:09:21.520Z,44.20
2019-04-05T20:11:48.966Z,46.97
2019-04-05T20:14:16.435Z,45.90
2019-04-05T20:16:43.919Z,49.10
2019-04-05T20:19:11.388Z,45.53
2019-04-05T20:21:38.805Z,44.23
2019-04-05T20:24:14.018Z,44.93
2019-04-05T20:26:36.597Z,46.10
2019-04-05T20:29:04.052Z,47.53
2019-04-05T20:31:31.469Z,42.63
2019-04-05T20:33:58.924Z,45.27
2019-04-05T20:36:26.343Z,47.13
2019-04-05T20:38:53.821Z,43.30
2019-04-05T20:41:21.298Z,45.40
2019-04-05T20:43:48.731Z,47.33
2019-04-05T20:46:16.200Z,42.87
2019-04-05T20:48:43.629Z,45.33
2019-04-05T20:51:11.052Z,45.77
2019-04-05T20:53:38.529Z,45.37
2019-04-05T20:56:05.983Z,48.93
2019-04-05T20:58:33.443Z,42.20
2019-04-05T21:01:01.124Z,46.27
2019-04-05T21:03:28.669Z,44.97
2019-04-05T21:05:56.069Z,44.37
2019-04-05T21:08:23.487Z,44.37
2019-04-05T21:10:50.940Z,48.70
2019-04-05T21:13:18.384Z,47.93
2019-04-05T21:15:45.818Z,46.67
2019-04-05T21:18:13.247Z,45.57
2019-04-05T21:20:41.764Z,52.03
2019-04-05T21:23:08.191Z,48.57
2019-04-05T21:25:35.668Z,47.37
2019-04-05T21:28:03.387Z,50.40
2019-04-05T21:30:30.816Z,48.43
2019-04-05T21:32:58.386Z,47.93
2019-04-05T21:35:26.069Z,49.13
2019-04-05T21:37:53.624Z,52.30
2019-04-05T21:40:21.088Z,48.70
2019-04-05T21:42:48.630Z,48.57
2019-04-05T21:45:16.129Z,54.07
2019-04-05T21:47:43.613Z,50.17
2019-04-05T21:50:11.082Z,52.10
2019-04-05T21:52:38.575Z,58.17
2019-04-05T21:55:06.081Z,51.93
2019-04-05T21:57:33.591Z,53.07
2019-04-05T22:00:01.068Z,56.97
2019-04-05T22:02:28.604Z,54.03
2019-04-05T22:04:56.093Z,52.30
2019-04-05T22:07:23.616Z,61.20
2019-04-05T22:09:51.082Z,58.17
2019-04-05T22:15:05.505Z,56.73
2019-04-05T22:17:34.331Z,60.30
2019-04-05T22:20:02.274Z,61.43
2019-04-05T22:22:30.154Z,60.87
2019-04-05T22:24:59.408Z,56.27
2019-04-05T22:27:25.111Z,64.20
2019-04-05T22:29:52.647Z,64.83
2019-04-05T22:32:20.504Z,63.70
2019-04-05T22:34:48.014Z,63.50
2019-04-05T22:37:15.528Z,61.53
2019-04-05T22:39:43.040Z,63.20
2019-04-05T22:42:10.612Z,57.43
2019-04-05T22:44:41.413Z,62.63
2019-04-05T22:47:05.663Z,65.43
2019-04-05T22:49:33.152Z,65.07
2019-04-05T22:52:00.734Z,65.00
2019-04-05T22:54:28.330Z,63.37
2019-04-05T22:56:55.855Z,62.77
2019-04-05T22:59:23.352Z,64.83
2019-04-05T23:01:50.898Z,70.40
2019-04-05T23:04:18.403Z,66.90
2019-04-05T23:06:45.909Z,68.43
2019-04-05T23:09:13.512Z,65.30
2019-04-05T23:11:41.021Z,68.57
2019-04-05T23:14:08.893Z,68.30
2019-04-05T23:16:36.377Z,66.30
2019-04-05T23:19:03.880Z,68.80
2019-04-05T23:21:31.393Z,70.53
2019-04-05T23:23:58.895Z,71.37
2019-04-05T23:26:28.777Z,67.67
2019-04-05T23:28:53.909Z,73.60
2019-04-05T23:31:21.396Z,77.60
2019-04-05T23:33:48.913Z,75.33
2019-04-05T23:36:16.385Z,71.57
2019-04-05T23:38:43.900Z,74.53
2019-04-05T23:41:11.400Z,73.43
2019-04-05T23:43:38.878Z,76.60
2019-04-05T23:46:06.395Z,71.47
2019-04-05T23:48:33.877Z,76.63
2019-04-05T23:51:01.430Z,78.83
2019-04-05T23:53:28.919Z,76.47
2019-04-05T23:55:56.477Z,81.67
2019-04-05T23:58:23.917Z,83.93
